createdAt,value
2022-08-18T00:01:16.526Z,22.30
2022-08-18T00:03:57.360Z,22.30
2022-08-18T00:06:31.866Z,22.40
2022-08-18T00:09:02.258Z,22.40
2022-08-18T00:11:40.981Z,22.40
2022-08-18T00:14:22.756Z,22.30
2022-08-18T00:16:53.935Z,22.30
2022-08-18T00:19:27.852Z,22.30
2022-08-18T00:22:15.294Z,22.20
2022-08-18T00:24:47.795Z,22.10
2022-08-18T00:27:23.151Z,22.10
2022-08-18T00:29:55.811Z,22.00
2022-08-18T00:32:26.520Z,21.90
2022-08-18T00:34:55.982Z,21.90
2022-08-18T00:37:25.428Z,21.90
2022-08-18T00:39:54.764Z,21.90
2022-08-18T00:42:29.890Z,22.00
2022-08-18T00:45:03.401Z,22.00
2022-08-18T00:47:41.503Z,22.10
2022-08-18T00:50:15.068Z,22.10
2022-08-18T00:52:49.262Z,22.10
2022-08-18T00:55:19.574Z,22.20
2022-08-18T00:57:52.261Z,22.20
2022-08-18T01:00:23.372Z,22.30
2022-08-18T01:02:57.751Z,22.40
2022-08-18T01:05:34.059Z,22.50
2022-08-18T01:08:03.699Z,22.60
2022-08-18T01:10:35.554Z,22.60
2022-08-18T01:13:04.449Z,22.70
2022-08-18T01:15:34.784Z,22.70
2022-08-18T01:18:24.786Z,22.90
2022-08-18T01:21:16.376Z,22.90
2022-08-18T01:23:47.253Z,23.00
2022-08-18T01:26:16.922Z,23.10
2022-08-18T01:28:49.635Z,23.10
2022-08-18T01:31:35.098Z,23.20
2022-08-18T01:34:03.583Z,22.90
2022-08-18T01:36:32.567Z,22.60
2022-08-18T01:39:02.627Z,22.30
2022-08-18T01:41:31.478Z,22.20
2022-08-18T01:44:01.296Z,22.00
2022-08-18T01:46:32.416Z,22.00
2022-08-18T01:49:01.822Z,21.90
2022-08-18T01:51:39.485Z,21.90
2022-08-18T01:54:13.043Z,21.80
2022-08-18T01:56:43.456Z,21.80
2022-08-18T01:59:14.832Z,21.70
2022-08-18T02:01:48.410Z,21.70
2022-08-18T02:04:36.716Z,21.70
2022-08-18T02:07:09.615Z,21.70
2022-08-18T02:09:41.331Z,21.60
2022-08-18T02:12:10.225Z,21.50
2022-08-18T02:14:39.102Z,21.50
2022-08-18T02:17:09.976Z,21.30
2022-08-18T02:19:40.997Z,20.80
2022-08-18T02:22:11.894Z,20.40
2022-08-18T02:24:42.768Z,20.00
2022-08-18T02:27:12.747Z,19.80
2022-08-18T02:29:41.804Z,19.60
2022-08-18T02:32:10.333Z,19.40
2022-08-18T02:34:39.012Z,19.40
2022-08-18T02:37:10.833Z,19.20
2022-08-18T02:39:43.339Z,19.20
2022-08-18T02:42:14.665Z,19.20
2022-08-18T02:44:43.329Z,19.10
2022-08-18T02:47:11.921Z,19.10
2022-08-18T02:49:40.400Z,19.20
2022-08-18T02:52:09.007Z,19.20
2022-08-18T02:54:37.420Z,19.10
2022-08-18T02:57:11.054Z,19.10
2022-08-18T02:59:41.411Z,19.10
2022-08-18T03:02:11.601Z,19.10
2022-08-18T03:04:40.445Z,19.10
2022-08-18T03:07:09.454Z,19.10
2022-08-18T03:09:38.207Z,19.10
2022-08-18T03:12:09.113Z,19.10
2022-08-18T03:14:38.318Z,19.10
2022-08-18T03:17:09.822Z,19.00
2022-08-18T03:19:38.673Z,18.90
2022-08-18T03:22:28.193Z,18.70
2022-08-18T03:24:58.339Z,18.50
2022-08-18T03:27:28.423Z,18.30
2022-08-18T03:29:58.784Z,18.20
2022-08-18T03:32:27.776Z,18.10
2022-08-18T03:34:56.268Z,18.00
2022-08-18T03:37:24.837Z,18.00
2022-08-18T03:39:53.335Z,18.00
2022-08-18T03:42:21.742Z,18.00
2022-08-18T03:44:52.513Z,18.00
2022-08-18T03:47:21.243Z,18.00
2022-08-18T03:49:50.093Z,18.00
2022-08-18T03:52:18.584Z,18.00
2022-08-18T03:54:47.184Z,18.00
2022-08-18T03:57:15.637Z,18.10
2022-08-18T03:59:44.128Z,18.10
2022-08-18T04:02:15.531Z,18.20
2022-08-18T04:04:44.015Z,18.20
2022-08-18T04:07:17.190Z,18.30
2022-08-18T04:09:47.149Z,18.30
2022-08-18T04:12:17.661Z,18.30
2022-08-18T04:14:49.402Z,18.30
2022-08-18T04:17:23.537Z,18.30
2022-08-18T04:19:52.464Z,18.30
2022-08-18T04:22:21.024Z,18.30
2022-08-18T04:24:50.347Z,18.40
2022-08-18T04:27:20.190Z,18.40
2022-08-18T04:29:48.911Z,18.50
2022-08-18T04:32:19.677Z,18.50
2022-08-18T04:34:48.125Z,18.50
2022-08-18T04:37:17.358Z,18.60
2022-08-18T04:39:46.880Z,18.60
2022-08-18T04:42:16.214Z,18.60
2022-08-18T04:44:45.233Z,18.60
2022-08-18T04:47:14.344Z,18.60
2022-08-18T04:49:47.160Z,18.60
2022-08-18T04:52:38.262Z,18.70
2022-08-18T04:55:10.595Z,18.70
2022-08-18T04:57:39.514Z,18.70
2022-08-18T05:00:10.092Z,18.80
2022-08-18T05:02:39.547Z,18.80
2022-08-18T05:05:11.406Z,18.80
2022-08-18T05:07:46.060Z,18.90
2022-08-18T05:10:17.873Z,18.90
2022-08-18T05:12:49.004Z,18.90
2022-08-18T05:15:19.518Z,18.90
2022-08-18T05:17:48.129Z,18.90
2022-08-18T05:20:23.346Z,18.90
2022-08-18T05:22:51.883Z,19.00
2022-08-18T05:25:20.712Z,19.00
2022-08-18T05:27:49.179Z,19.00
2022-08-18T05:30:17.704Z,19.10
2022-08-18T05:32:50.347Z,19.10
2022-08-18T05:35:26.522Z,19.20
2022-08-18T05:38:08.827Z,19.20
2022-08-18T05:40:37.992Z,19.40
2022-08-18T05:43:08.359Z,19.50
2022-08-18T05:45:37.218Z,19.70
2022-08-18T05:48:05.981Z,19.90
2022-08-18T05:50:38.692Z,20.10
2022-08-18T05:53:13.364Z,20.30
2022-08-18T05:56:05.739Z,20.40
2022-08-18T05:58:39.790Z,20.60
2022-08-18T06:01:16.823Z,20.80
2022-08-18T06:03:51.177Z,21.00
2022-08-18T06:06:25.577Z,21.20
2022-08-18T06:09:00.336Z,21.40
2022-08-18T06:11:28.920Z,21.60
2022-08-18T06:14:00.023Z,21.70
2022-08-18T06:16:48.326Z,21.90
2022-08-18T06:19:36.209Z,22.00
2022-08-18T06:22:14.942Z,22.30
2022-08-18T06:24:51.314Z,22.50
2022-08-18T06:27:28.827Z,22.70
2022-08-18T06:30:07.206Z,23.10
2022-08-18T06:33:04.047Z,23.30
2022-08-18T06:35:38.340Z,23.60
2022-08-18T06:38:45.508Z,23.60
2022-08-18T06:41:41.603Z,23.70
2022-08-18T06:44:09.647Z,23.80
2022-08-18T06:46:43.420Z,23.80
2022-08-18T06:49:15.524Z,23.70
2022-08-18T06:51:44.242Z,23.70
2022-08-18T06:54:30.835Z,23.70
2022-08-18T06:57:00.394Z,23.80
2022-08-18T06:59:31.305Z,23.80
2022-08-18T07:02:03.596Z,23.90
2022-08-18T07:04:42.659Z,23.90
2022-08-18T07:07:21.462Z,23.90
2022-08-18T07:09:51.448Z,23.90
2022-08-18T07:12:30.529Z,23.90
2022-08-18T07:15:03.272Z,23.90
2022-08-18T07:17:42.738Z,23.90
2022-08-18T07:20:21.054Z,24.10
2022-08-18T07:22:56.496Z,24.20
2022-08-18T07:25:32.183Z,24.50
2022-08-18T07:28:02.758Z,24.70
2022-08-18T07:30:36.154Z,24.70
2022-08-18T07:33:14.240Z,24.70
2022-08-18T07:35:49.201Z,24.60
2022-08-18T07:38:42.042Z,24.60
2022-08-18T07:41:20.667Z,24.60
2022-08-18T07:44:01.310Z,24.60
2022-08-18T07:46:36.865Z,24.40
2022-08-18T07:49:06.523Z,24.40
2022-08-18T07:51:46.459Z,24.50
2022-08-18T07:54:48.872Z,24.70
2022-08-18T07:57:28.165Z,24.90
2022-08-18T08:00:05.019Z,25.10
2022-08-18T08:02:54.982Z,25.30
2022-08-18T08:05:37.206Z,25.50
2022-08-18T08:08:16.804Z,25.70
2022-08-18T08:10:56.889Z,26.00
2022-08-18T08:13:54.245Z,26.30
2022-08-18T08:16:36.498Z,26.60
2022-08-18T08:19:13.867Z,26.90
2022-08-18T08:21:52.850Z,27.20
2022-08-18T08:24:31.098Z,27.40
2022-08-18T08:27:10.033Z,27.70
2022-08-18T08:29:47.963Z,28.00
2022-08-18T08:32:23.455Z,28.20
2022-08-18T08:34:55.648Z,28.40
2022-08-18T08:37:34.713Z,28.60
2022-08-18T08:40:08.681Z,28.70
2022-08-18T08:42:44.521Z,28.50
2022-08-18T08:45:19.281Z,28.20
2022-08-18T08:48:08.181Z,27.70
2022-08-18T08:50:42.675Z,27.30
2022-08-18T08:53:18.826Z,27.30
2022-08-18T08:55:51.352Z,27.30
2022-08-18T08:58:26.190Z,27.20
2022-08-18T09:00:57.892Z,27.00
2022-08-18T09:03:36.279Z,26.90
2022-08-18T09:06:18.054Z,27.00
2022-08-18T09:09:16.198Z,27.10
2022-08-18T09:12:06.321Z,27.10
2022-08-18T09:15:00.636Z,27.00
2022-08-18T09:17:59.837Z,27.00
2022-08-18T09:20:45.819Z,27.10
2022-08-18T09:23:21.825Z,27.30
2022-08-18T09:25:53.962Z,27.40
2022-08-18T09:28:24.902Z,27.40
2022-08-18T09:31:19.931Z,27.30
2022-08-18T09:34:10.812Z,27.30
2022-08-18T09:36:54.641Z,27.20
2022-08-18T09:39:54.299Z,27.00
2022-08-18T09:45:57.683Z,26.60
2022-08-18T09:48:33.444Z,26.60
2022-08-18T09:50:37.083Z,26.80
2022-08-18T09:51:33.317Z,26.60
2022-08-18T09:54:15.229Z,26.50
2022-08-18T09:57:19.187Z,26.60
2022-08-18T10:00:28.424Z,26.50
2022-08-18T10:03:13.656Z,26.50
2022-08-18T10:06:12.662Z,26.60
2022-08-18T10:09:17.754Z,26.60
2022-08-18T10:12:23.406Z,26.50
2022-08-18T10:15:32.901Z,26.70
2022-08-18T10:18:18.832Z,26.90
2022-08-18T10:21:00.645Z,27.30
2022-08-18T10:24:08.511Z,27.80
2022-08-18T10:27:35.014Z,27.80
2022-08-18T10:34:08.476Z,27.50
2022-08-18T10:36:52.032Z,27.40
2022-08-18T10:39:23.918Z,27.20
2022-08-18T10:41:59.935Z,26.90
2022-08-18T10:44:33.131Z,26.70
2022-08-18T10:47:04.367Z,26.80
2022-08-18T10:49:46.622Z,27.00
2022-08-18T10:52:54.385Z,27.10
2022-08-18T10:55:50.010Z,27.30
2022-08-18T10:58:45.912Z,27.60
2022-08-18T11:01:36.807Z,28.00
2022-08-18T11:04:32.734Z,28.50
2022-08-18T11:07:08.482Z,29.00
2022-08-18T11:09:41.578Z,29.40
2022-08-18T11:12:13.846Z,29.40
2022-08-18T11:15:21.263Z,29.60
2022-08-18T11:20:56.309Z,30.20
2022-08-18T11:23:25.485Z,29.90
2022-08-18T11:25:56.329Z,29.60
2022-08-18T11:28:31.773Z,29.60
2022-08-18T11:31:01.169Z,29.70
2022-08-18T11:33:31.171Z,29.90
2022-08-18T11:36:06.815Z,30.10
2022-08-18T11:38:35.252Z,30.20
2022-08-18T11:41:18.814Z,30.10
2022-08-18T11:43:50.446Z,30.10
2022-08-18T11:46:30.268Z,29.90
2022-08-18T11:49:15.673Z,29.70
2022-08-18T11:51:57.322Z,29.60
2022-08-18T11:54:50.731Z,29.70
2022-08-18T11:57:46.174Z,29.90
2022-08-18T12:00:43.644Z,30.00
2022-08-18T12:03:23.944Z,30.00
2022-08-18T12:05:58.191Z,30.10
2022-08-18T12:08:58.177Z,30.20
2022-08-18T12:11:26.500Z,30.20
2022-08-18T12:14:31.703Z,30.20
2022-08-18T12:17:01.624Z,30.10
2022-08-18T12:19:34.320Z,30.50
2022-08-18T12:25:07.470Z,31.30
2022-08-18T12:27:43.640Z,31.50
2022-08-18T12:30:16.798Z,31.50
2022-08-18T12:33:05.336Z,31.30
2022-08-18T12:35:35.499Z,31.00
2022-08-18T12:38:12.987Z,30.80
2022-08-18T12:40:43.305Z,30.70
2022-08-18T12:43:12.058Z,30.60
2022-08-18T12:45:41.812Z,30.60
2022-08-18T12:48:12.086Z,30.50
2022-08-18T12:50:54.477Z,30.20
2022-08-18T12:56:23.446Z,29.90
2022-08-18T12:58:55.464Z,29.90
2022-08-18T13:01:25.664Z,29.90
2022-08-18T13:06:59.501Z,29.90
2022-08-18T13:09:35.660Z,30.10
2022-08-18T13:12:19.305Z,30.50
2022-08-18T13:14:49.947Z,30.90
2022-08-18T13:17:30.258Z,31.30
2022-08-18T13:20:05.675Z,31.60
2022-08-18T13:22:34.242Z,31.70
2022-08-18T13:25:07.311Z,31.60
2022-08-18T13:27:37.542Z,31.40
2022-08-18T13:30:29.589Z,31.40
2022-08-18T13:33:02.573Z,31.20
2022-08-18T13:35:48.334Z,30.80
2022-08-18T13:38:27.503Z,30.70
2022-08-18T13:41:01.023Z,30.60
2022-08-18T13:43:34.459Z,30.40
2022-08-18T13:46:04.238Z,30.40
2022-08-18T13:48:32.831Z,30.60
2022-08-18T13:51:03.370Z,30.40
2022-08-18T13:53:32.394Z,30.10
2022-08-18T13:56:02.500Z,29.90
2022-08-18T13:58:32.493Z,29.80
2022-08-18T14:01:41.974Z,29.80
2022-08-18T14:03:52.793Z,29.80
2022-08-18T14:06:22.703Z,29.70
2022-08-18T14:08:53.474Z,29.70
2022-08-18T14:11:32.862Z,29.70
2022-08-18T14:14:03.544Z,29.70
2022-08-18T14:16:32.975Z,29.70
2022-08-18T14:19:19.286Z,29.80
2022-08-18T14:22:11.113Z,29.70
2022-08-18T14:24:58.763Z,29.70
2022-08-18T14:27:35.026Z,29.60
2022-08-18T14:30:06.782Z,29.50
2022-08-18T14:32:36.098Z,29.30
2022-08-18T14:35:31.833Z,29.30
2022-08-18T14:37:57.240Z,29.40
2022-08-18T14:40:25.933Z,29.40
2022-08-18T14:42:57.186Z,29.60
2022-08-18T14:45:34.418Z,29.60
2022-08-18T14:48:06.499Z,29.60
2022-08-18T14:50:37.042Z,29.50
2022-08-18T14:53:06.324Z,29.60
2022-08-18T14:55:35.931Z,29.40
2022-08-18T14:58:07.084Z,29.40
2022-08-18T15:00:50.079Z,29.40
2022-08-18T15:03:30.818Z,29.40
2022-08-18T15:06:04.837Z,29.60
2022-08-18T15:08:35.343Z,29.70
2022-08-18T15:11:11.855Z,29.90
2022-08-18T15:13:43.675Z,30.10
2022-08-18T15:16:14.138Z,30.30
2022-08-18T15:18:42.700Z,30.50
2022-08-18T15:21:35.671Z,30.60
2022-08-18T15:24:25.854Z,30.60
2022-08-18T15:26:58.246Z,30.80
2022-08-18T15:29:33.920Z,30.70
2022-08-18T15:32:06.089Z,30.80
2022-08-18T15:34:47.231Z,30.70
2022-08-18T15:37:24.085Z,30.80
2022-08-18T15:40:05.517Z,30.80
2022-08-18T15:42:34.174Z,30.80
2022-08-18T15:45:11.648Z,30.70
2022-08-18T15:47:42.604Z,30.70
2022-08-18T15:50:21.846Z,30.80
2022-08-18T15:53:07.997Z,30.80
2022-08-18T15:55:40.570Z,30.60
2022-08-18T15:58:12.398Z,30.40
2022-08-18T16:00:45.588Z,30.40
2022-08-18T16:03:15.988Z,30.30
2022-08-18T16:05:52.555Z,30.20
2022-08-18T16:08:22.682Z,30.20
2022-08-18T16:10:51.283Z,30.10
2022-08-18T16:13:20.177Z,30.20
2022-08-18T16:15:50.427Z,30.20
2022-08-18T16:18:21.624Z,30.20
2022-08-18T16:20:52.731Z,30.20
2022-08-18T16:23:25.428Z,30.20
2022-08-18T16:25:53.847Z,30.20
2022-08-18T16:28:34.817Z,30.20
2022-08-18T16:31:06.161Z,30.20
2022-08-18T16:33:35.719Z,30.10
2022-08-18T16:36:05.946Z,29.90
2022-08-18T16:38:34.790Z,29.80
2022-08-18T16:41:09.482Z,29.70
2022-08-18T16:43:41.470Z,29.60
2022-08-18T16:46:14.220Z,29.60
2022-08-18T16:48:44.933Z,29.50
2022-08-18T16:51:17.363Z,29.40
2022-08-18T16:53:47.558Z,29.30
2022-08-18T16:56:19.100Z,29.20
2022-08-18T16:59:06.024Z,29.20
2022-08-18T17:01:55.347Z,29.10
2022-08-18T17:04:26.150Z,29.00
2022-08-18T17:06:54.539Z,28.80
2022-08-18T17:09:23.876Z,28.80
2022-08-18T17:11:53.029Z,28.70
2022-08-18T17:14:22.963Z,28.60
2022-08-18T17:16:55.321Z,28.50
2022-08-18T17:19:25.189Z,28.50
2022-08-18T17:21:53.981Z,28.50
2022-08-18T17:24:31.650Z,28.40
2022-08-18T17:27:21.179Z,28.40
2022-08-18T17:30:03.610Z,28.20
2022-08-18T17:32:40.520Z,28.10
2022-08-18T17:35:14.345Z,28.00
2022-08-18T17:37:49.489Z,27.90
2022-08-18T17:40:22.266Z,27.90
2022-08-18T17:42:53.626Z,27.80
2022-08-18T17:45:22.952Z,27.70
2022-08-18T17:47:58.268Z,27.70
2022-08-18T17:50:49.385Z,27.60
2022-08-18T17:53:18.669Z,27.50
2022-08-18T17:55:52.165Z,27.40
2022-08-18T17:58:28.194Z,27.30
2022-08-18T18:00:57.487Z,27.10
2022-08-18T18:03:28.849Z,27.10
2022-08-18T18:06:10.600Z,26.90
2022-08-18T18:08:50.605Z,26.80
2022-08-18T18:11:25.141Z,26.70
2022-08-18T18:13:54.835Z,26.60
2022-08-18T18:16:29.043Z,26.50
2022-08-18T18:19:03.550Z,26.40
2022-08-18T18:22:00.662Z,26.30
2022-08-18T18:24:31.876Z,26.20
2022-08-18T18:27:00.567Z,26.20
2022-08-18T18:29:35.604Z,26.00
2022-08-18T18:32:07.077Z,25.90
2022-08-18T18:34:40.388Z,25.80
2022-08-18T18:37:27.786Z,25.70
2022-08-18T18:39:58.173Z,25.60
2022-08-18T18:42:29.856Z,25.60
2022-08-18T18:44:59.981Z,25.50
2022-08-18T18:47:54.573Z,25.40
2022-08-18T18:50:30.227Z,25.40
2022-08-18T18:53:16.090Z,25.40
2022-08-18T18:55:54.584Z,25.30
2022-08-18T18:58:33.289Z,25.30
2022-08-18T19:01:05.739Z,25.30
2022-08-18T19:03:40.428Z,25.20
2022-08-18T19:06:24.421Z,25.20
2022-08-18T19:09:09.643Z,25.10
2022-08-18T19:11:57.950Z,25.10
2022-08-18T19:14:31.831Z,25.10
2022-08-18T19:17:05.991Z,25.00
2022-08-18T19:19:39.437Z,25.00
2022-08-18T19:22:17.023Z,25.00
2022-08-18T19:24:53.779Z,25.00
2022-08-18T19:27:29.696Z,24.90
2022-08-18T19:30:02.720Z,24.90
2022-08-18T19:32:39.304Z,24.90
2022-08-18T19:35:12.256Z,24.80
2022-08-18T19:38:01.982Z,24.80
2022-08-18T19:40:40.329Z,24.80
2022-08-18T19:43:13.714Z,24.70
2022-08-18T19:45:49.934Z,24.70
2022-08-18T19:48:23.312Z,24.70
2022-08-18T19:50:56.025Z,24.70
2022-08-18T19:53:52.424Z,24.70
2022-08-18T19:56:44.576Z,24.60
2022-08-18T19:59:51.122Z,24.60
2022-08-18T20:02:35.334Z,24.50
2022-08-18T20:05:20.527Z,24.50
2022-08-18T20:08:07.907Z,24.40
2022-08-18T20:10:46.889Z,24.40
2022-08-18T20:13:27.560Z,24.40
2022-08-18T20:16:13.798Z,24.30
2022-08-18T20:18:44.032Z,24.40
2022-08-18T20:21:42.871Z,24.40
2022-08-18T20:24:35.209Z,24.40
2022-08-18T20:27:35.418Z,24.40
2022-08-18T20:30:33.238Z,24.30
2022-08-18T20:33:32.810Z,24.30
2022-08-18T20:36:14.151Z,24.20
2022-08-18T20:38:45.702Z,24.20
2022-08-18T20:41:50.807Z,24.20
2022-08-18T20:44:45.929Z,24.10
2022-08-18T20:47:46.851Z,24.10
2022-08-18T20:50:45.191Z,24.10
2022-08-18T20:53:26.414Z,24.00
2022-08-18T20:56:12.848Z,24.00
2022-08-18T20:59:08.634Z,24.00
2022-08-18T21:01:39.335Z,24.10
2022-08-18T21:04:08.201Z,24.00
2022-08-18T21:06:44.629Z,23.90
2022-08-18T21:09:19.421Z,23.90
2022-08-18T21:11:50.365Z,23.80
2022-08-18T21:14:27.105Z,23.60
2022-08-18T21:17:00.126Z,23.50
2022-08-18T21:19:30.462Z,23.20
2022-08-18T21:22:01.588Z,22.60
2022-08-18T21:24:34.983Z,22.20
2022-08-18T21:27:07.051Z,21.90
2022-08-18T21:29:47.264Z,21.60
2022-08-18T21:32:21.895Z,21.40
2022-08-18T21:34:52.194Z,21.10
2022-08-18T21:37:21.581Z,20.70
2022-08-18T21:39:56.166Z,20.40
2022-08-18T21:42:28.077Z,20.20
2022-08-18T21:45:00.853Z,20.10
2022-08-18T21:47:33.126Z,20.00
2022-08-18T21:50:09.490Z,19.90
2022-08-18T21:52:40.593Z,19.80
2022-08-18T21:55:19.641Z,19.70
2022-08-18T21:58:01.034Z,19.70
2022-08-18T22:00:31.306Z,19.60
2022-08-18T22:03:23.840Z,19.60
2022-08-18T22:06:02.852Z,19.60
2022-08-18T22:08:33.759Z,19.60
2022-08-18T22:11:47.340Z,19.70
2022-08-18T22:14:29.507Z,19.60
2022-08-18T22:17:43.200Z,19.60
2022-08-18T22:20:36.749Z,19.60
2022-08-18T22:23:39.593Z,19.60
2022-08-18T22:26:13.610Z,19.60
2022-08-18T22:28:55.587Z,19.60
2022-08-18T22:31:25.368Z,19.60
2022-08-18T22:33:55.022Z,19.60
2022-08-18T22:36:27.804Z,19.60
2022-08-18T22:38:56.909Z,19.60
2022-08-18T22:41:26.100Z,19.60
2022-08-18T22:43:55.520Z,19.70
2022-08-18T22:46:25.499Z,19.70
2022-08-18T22:48:54.466Z,19.70
2022-08-18T22:51:26.491Z,19.70
2022-08-18T22:53:55.929Z,19.80
2022-08-18T22:56:34.537Z,19.80
2022-08-18T22:59:09.681Z,19.80
2022-08-18T23:01:46.742Z,19.90
2022-08-18T23:04:16.401Z,19.80
2022-08-18T23:06:51.949Z,19.90
2022-08-18T23:09:23.527Z,20.00
2022-08-18T23:11:53.466Z,20.00
2022-08-18T23:14:22.376Z,19.90
2022-08-18T23:16:51.031Z,20.00
2022-08-18T23:19:21.411Z,20.00
2022-08-18T23:21:52.389Z,19.90
2022-08-18T23:24:22.180Z,19.90
2022-08-18T23:26:51.038Z,19.90
2022-08-18T23:29:23.170Z,20.00
2022-08-18T23:31:53.482Z,19.90
2022-08-18T23:34:24.074Z,19.90
2022-08-18T23:37:00.999Z,19.80
2022-08-18T23:39:31.266Z,19.70
2022-08-18T23:42:01.206Z,19.70
2022-08-18T23:44:30.549Z,19.70
2022-08-18T23:46:59.986Z,19.70
2022-08-18T23:49:30.410Z,19.60
2022-08-18T23:52:01.363Z,19.60
2022-08-18T23:54:32.333Z,19.60
2022-08-18T23:57:00.941Z,19.50
2022-08-18T23:59:31.396Z,19.50
